Time;durP1;ratioP1;P1;durP2;ratioP2;P2;SDS_P1;SDS_P2;PMS_P1;PMS_P2;Temp;Humidity;BMP_temperature;BMP_pressure;BME280_temperature;BME280_humidity;BME280_pressure;Samples;Min_cycle;Max_cycle;Signal;HPM_P1;HPM_P2
2021/04/02 00:01:37;;;;;;;5.40;2.63;;;;;;;5.32;67.84;100451.00;104493;1104;78585;-66
2021/04/02 00:03:43;;;;;;;2.25;1.60;;;;;;;5.30;67.79;100448.45;104491;1103;64387;-67
2021/04/02 00:05:53;;;;;;;1.67;1.45;;;;;;;5.33;67.67;100449.98;104515;1103;82006;-67
2021/04/02 00:07:59;;;;;;;2.25;1.60;;;;;;;5.30;67.91;100448.45;104523;1104;72250;-67
2021/04/02 00:10:13;;;;;;;4.15;2.78;;;;;;;5.31;67.72;100457.34;104470;1103;83538;-66
2021/04/02 00:12:19;;;;;;;3.10;1.65;;;;;;;5.30;67.78;100448.45;104492;1104;77370;-63
2021/04/02 00:14:24;;;;;;;2.58;1.77;;;;;;;5.31;67.76;100450.15;104519;1104;64282;-63
2021/04/02 00:16:35;;;;;;;2.50;1.58;;;;;;;5.31;67.58;100455.50;104496;1104;80856;-63
2021/04/02 00:18:41;;;;;;;4.72;1.83;;;;;;;5.28;67.65;100461.17;104575;1101;72057;-62
2021/04/02 00:20:47;;;;;;;2.45;1.70;;;;;;;5.27;67.78;100458.66;104590;1102;84758;-62
2021/04/02 00:22:52;;;;;;;3.27;1.90;;;;;;;5.22;68.33;100467.13;104708;1101;78595;-66
2021/04/02 00:24:57;;;;;;;2.17;1.30;;;;;;;5.16;67.85;100466.92;104631;1104;64239;-65
2021/04/02 00:27:04;;;;;;;1.40;1.13;;;;;;;5.19;68.05;100469.30;104576;1101;81028;-62
2021/04/02 00:29:12;;;;;;;2.35;1.30;;;;;;;5.19;67.78;100469.30;104655;1101;71877;-62
2021/04/02 00:31:18;;;;;;;6.53;4.72;;;;;;;5.19;67.96;100472.79;104645;1102;85735;-62
2021/04/02 00:33:27;;;;;;;2.50;1.80;;;;;;;5.20;67.75;100474.48;104563;1102;77741;-62
2021/04/02 00:35:33;;;;;;;2.22;1.50;;;;;;;5.16;68.06;100462.41;104571;1101;64108;-63
2021/04/02 00:37:38;;;;;;;4.80;1.75;;;;;;;5.08;67.84;100464.17;104657;1101;80542;-66
2021/04/02 00:39:44;;;;;;;3.05;1.60;;;;;;;5.03;68.07;100464.60;104574;1102;72267;-66
2021/04/02 00:41:49;;;;;;;2.87;1.60;;;;;;;4.99;67.98;100468.59;104553;1102;83095;-62
2021/04/02 00:43:55;;;;;;;4.67;3.10;;;;;;;4.91;68.44;100463.16;104559;1101;78672;-62
2021/04/02 00:46:00;;;;;;;4.45;2.30;;;;;;;4.79;68.40;100467.03;104595;1101;64108;-63
2021/04/02 00:48:11;;;;;;;4.72;2.03;;;;;;;4.71;68.42;100470.47;104649;1101;80424;-66
2021/04/02 00:50:23;;;;;;;4.15;2.30;;;;;;;4.66;68.29;100475.43;104675;1101;71537;-65
2021/04/02 00:52:28;;;;;;;2.47;1.40;;;;;;;4.62;68.23;100474.03;104678;1102;83156;-62
2021/04/02 00:54:34;;;;;;;3.65;1.70;;;;;;;4.56;68.19;100489.86;104589;1101;78383;-63
2021/04/02 00:56:40;;;;;;;2.33;1.40;;;;;;;4.46;69.15;100481.02;104502;1102;64106;-63
2021/04/02 00:58:46;;;;;;;3.28;1.80;;;;;;;4.39;68.66;100477.27;104466;1104;81556;-63
2021/04/02 01:00:53;;;;;;;2.05;1.40;;;;;;;4.32;68.40;100471.66;104656;1101;72083;-63
2021/04/02 01:02:59;;;;;;;1.70;1.17;;;;;;;4.24;68.78;100473.38;104534;1104;83881;-62
2021/04/02 01:05:11;;;;;;;5.50;4.10;;;;;;;4.18;68.45;100481.00;104684;1101;77246;-63
2021/04/02 01:07:19;;;;;;;4.05;2.50;;;;;;;4.13;68.45;100490.45;104653;1101;64182;-66
2021/04/02 01:09:24;;;;;;;3.42;2.28;;;;;;;4.07;68.45;100486.52;104510;1104;80511;-66
2021/04/02 01:11:33;;;;;;;2.80;1.80;;;;;;;4.01;68.58;100486.28;104667;1101;72101;-65
2021/04/02 01:13:47;;;;;;;2.97;1.83;;;;;;;3.96;68.63;100492.05;104510;1104;83580;-66
2021/04/02 01:15:57;;;;;;;11.82;5.90;;;;;;;3.90;68.65;100495.28;104492;1104;77390;-66
2021/04/02 01:18:15;;;;;;;4.15;2.10;;;;;;;3.86;68.65;100498.40;104496;1104;64109;-62
2021/04/02 01:20:24;;;;;;;4.37;2.03;;;;;;;3.77;68.85;100497.43;104542;1104;81061;-62
2021/04/02 01:22:32;;;;;;;5.93;3.20;;;;;;;3.71;68.80;100506.02;104528;1104;70468;-62
2021/04/02 01:25:10;;;;;;;4.05;1.73;;;;;;;3.66;68.64;100510.94;104517;1104;84245;-62
2021/04/02 01:27:31;;;;;;;2.95;2.03;;;;;;;3.57;68.94;100519.83;104483;1103;78049;-66
2021/04/02 01:29:47;;;;;;;3.38;1.85;;;;;;;3.53;69.89;100519.27;104519;1104;64108;-66
2021/04/02 01:31:57;;;;;;;3.80;2.08;;;;;;;3.48;69.55;100520.67;104523;1104;81374;-62
2021/04/02 01:34:04;;;;;;;2.60;1.67;;;;;;;3.44;69.43;100522.77;104508;1104;72498;-62
2021/04/02 01:36:12;;;;;;;3.47;1.55;;;;;;;3.37;70.01;100521.66;104509;1104;84492;-65
2021/04/02 01:38:23;;;;;;;2.60;1.50;;;;;;;3.30;69.76;100523.19;104495;1104;77692;-63
2021/04/02 01:40:34;;;;;;;3.85;2.15;;;;;;;3.29;69.81;100516.18;104500;1103;64265;-67
2021/04/02 01:42:43;;;;;;;3.42;1.88;;;;;;;3.28;69.88;100522.48;104498;1103;80313;-62
2021/04/02 01:44:53;;;;;;;2.55;1.30;;;;;;;3.18;70.54;100526.14;104524;1104;72959;-63
2021/04/02 01:46:59;;;;;;;3.47;1.63;;;;;;;3.13;70.33;100517.71;104496;1104;83571;-65
2021/04/02 01:49:06;;;;;;;4.15;1.65;;;;;;;3.11;70.83;100523.17;104463;1103;77100;-65
2021/04/02 01:51:15;;;;;;;3.45;1.50;;;;;;;3.05;70.86;100520.23;104498;1104;64108;-65
2021/04/02 01:53:24;;;;;;;4.28;2.70;;;;;;;3.04;71.11;100530.05;104490;1104;79685;-65
2021/04/02 01:55:29;;;;;;;4.67;3.20;;;;;;;2.92;71.06;100542.66;104540;1104;71019;-66
2021/04/02 01:57:35;;;;;;;3.13;1.83;;;;;;;2.87;71.24;100533.38;104526;1104;85850;-61
2021/04/02 01:59:45;;;;;;;2.50;1.53;;;;;;;2.84;71.75;100553.17;104479;1103;77835;-62
2021/04/02 02:01:52;;;;;;;7.07;3.90;;;;;;;2.82;71.43;100549.81;104550;1104;64282;-64
2021/04/02 02:04:00;;;;;;;5.13;3.50;;;;;;;2.83;71.55;100548.81;104516;1104;80570;-65
2021/04/02 02:06:09;;;;;;;4.88;2.17;;;;;;;2.85;71.45;100554.88;104508;1104;71627;-62
2021/04/02 02:08:22;;;;;;;6.27;4.23;;;;;;;2.83;71.96;100558.66;104525;1104;84738;-60
2021/04/02 02:10:28;;;;;;;3.45;2.22;;;;;;;2.78;71.83;100559.05;104509;1104;77153;-61
2021/04/02 02:12:34;;;;;;;3.55;2.45;;;;;;;2.75;71.70;100567.31;104522;1104;64269;-64
2021/04/02 02:14:45;;;;;;;6.27;3.30;;;;;;;2.69;72.07;100573.19;104472;1104;80332;-64
2021/04/02 02:16:54;;;;;;;4.65;3.08;;;;;;;2.62;72.07;100569.39;104552;1104;71593;-64
2021/04/02 02:19:08;;;;;;;11.67;6.30;;;;;;;2.55;72.95;100573.58;104636;1102;85714;-64
2021/04/02 02:21:15;;;;;;;-1.00;-1.00;;;;;;;2.51;72.93;100569.48;104503;1103;76867;-65
2021/04/02 02:23:21;;;;;;;11.20;5.90;;;;;;;2.45;73.69;100575.34;104631;1101;64195;-64
2021/04/02 02:25:28;;;;;;;6.10;3.70;;;;;;;2.40;73.34;100585.56;104496;1104;80465;-63
2021/04/02 02:27:38;;;;;;;9.10;4.57;;;;;;;2.43;73.55;100590.63;104665;1101;71823;-60
2021/04/02 02:29:44;;;;;;;9.93;5.67;;;;;;;2.54;73.48;100585.21;104516;1104;84323;-61
2021/04/02 02:31:53;;;;;;;6.15;3.58;;;;;;;2.66;73.54;100589.48;104664;1102;78631;-64
2021/04/02 02:34:01;;;;;;;4.97;2.97;;;;;;;2.77;73.47;100584.06;104519;1104;64105;-63
2021/04/02 02:36:08;;;;;;;4.25;3.47;;;;;;;2.89;73.72;100579.44;104625;1101;80661;-62
2021/04/02 02:38:14;;;;;;;4.05;2.72;;;;;;;2.93;73.74;100579.05;104529;1104;72134;-62
2021/04/02 02:40:23;;;;;;;4.35;2.72;;;;;;;2.88;74.19;100581.25;104649;1101;83567;-62
2021/04/02 02:42:29;;;;;;;4.07;1.90;;;;;;;2.83;73.79;100580.00;104512;1104;76933;-61
2021/04/02 02:44:40;;;;;;;4.43;2.53;;;;;;;2.74;74.28;100586.99;104649;1101;64079;-61
2021/04/02 02:46:45;;;;;;;4.32;2.00;;;;;;;2.71;73.99;100587.26;104485;1104;80991;-63
2021/04/02 02:49:05;;;;;;;3.47;2.00;;;;;;;2.75;74.46;100585.14;104669;1101;72797;-63
2021/04/02 02:51:11;;;;;;;4.43;2.30;;;;;;;2.74;74.69;100580.80;104505;1104;85603;-60
2021/04/02 02:53:23;;;;;;;2.85;2.10;;;;;;;2.71;74.36;100579.25;104650;1101;77547;-61
2021/04/02 02:55:33;;;;;;;5.25;2.28;;;;;;;2.69;74.58;100589.19;104541;1104;64111;-61
2021/04/02 02:57:41;;;;;;;3.85;2.60;;;;;;;2.68;74.51;100589.34;104648;1101;81608;-64
2021/04/02 02:59:49;;;;;;;6.07;2.58;;;;;;;2.66;74.64;100580.64;104495;1104;71745;-64
2021/04/02 03:01:55;;;;;;;4.20;2.67;;;;;;;2.57;74.51;100582.28;104650;1101;84826;-61
2021/04/02 03:04:03;;;;;;;3.33;2.40;;;;;;;2.50;74.54;100578.44;104472;1104;77075;-60
2021/04/02 03:06:10;;;;;;;4.20;2.92;;;;;;;2.47;74.24;100585.89;104673;1101;64075;-61
2021/04/02 03:08:20;;;;;;;3.58;2.35;;;;;;;2.39;74.38;100587.38;104653;1101;80789;-61
2021/04/02 03:10:30;;;;;;;3.50;2.53;;;;;;;2.30;74.47;100595.34;104545;1104;70573;-61
2021/04/02 03:12:38;;;;;;;3.53;2.30;;;;;;;2.23;74.49;100587.02;104625;1101;83628;-65
2021/04/02 03:14:45;;;;;;;4.88;2.60;;;;;;;2.20;74.40;100591.75;104648;1101;77918;-63
2021/04/02 03:16:55;;;;;;;3.42;2.30;;;;;;;2.13;74.17;100591.45;104535;1104;64250;-65
2021/04/02 03:19:02;;;;;;;3.57;2.77;;;;;;;2.09;74.17;100591.82;104498;1104;81878;-63
2021/04/02 03:21:10;;;;;;;3.85;2.80;;;;;;;2.04;74.42;100594.03;104505;1104;72212;-61
2021/04/02 03:23:17;;;;;;;5.57;2.70;;;;;;;1.97;74.37;100584.89;104538;1104;84586;-61
2021/04/02 03:25:27;;;;;;;4.05;2.63;;;;;;;1.91;74.74;100588.06;104474;1104;77672;-59
2021/04/02 03:27:34;;;;;;;7.03;3.50;;;;;;;1.88;74.80;100580.33;104486;1104;64096;-61
2021/04/02 03:29:43;;;;;;;5.20;3.33;;;;;;;1.86;74.88;100577.81;104491;1104;80952;-61
2021/04/02 03:31:57;;;;;;;3.80;2.90;;;;;;;1.79;74.97;100574.81;104493;1104;70953;-61
2021/04/02 03:34:02;;;;;;;3.63;3.25;;;;;;;1.74;74.83;100574.35;104464;1104;85144;-60
2021/04/02 03:36:14;;;;;;;5.53;4.10;;;;;;;1.71;75.52;100576.42;104490;1104;77033;-61
2021/04/02 03:38:21;;;;;;;4.10;3.33;;;;;;;1.72;75.18;100580.78;104496;1104;64215;-60
2021/04/02 03:40:29;;;;;;;5.45;3.85;;;;;;;1.81;75.36;100577.36;104505;1104;80329;-60
2021/04/02 03:42:36;;;;;;;4.13;3.53;;;;;;;1.81;75.10;100584.50;104488;1104;72190;-60
2021/04/02 03:44:44;;;;;;;5.50;3.33;;;;;;;1.85;75.77;100575.27;104512;1104;83795;-61
2021/04/02 03:46:52;;;;;;;6.78;3.90;;;;;;;1.90;75.36;100576.56;104494;1104;76953;-62
2021/04/02 03:49:03;;;;;;;4.45;3.60;;;;;;;1.86;75.51;100575.15;104518;1104;64406;-61
2021/04/02 03:51:12;;;;;;;4.20;3.55;;;;;;;1.87;75.69;100574.16;104472;1104;81924;-64
2021/04/02 03:53:22;;;;;;;5.05;3.75;;;;;;;1.89;75.38;100576.70;104512;1104;71773;-65
2021/04/02 03:55:32;;;;;;;5.45;3.72;;;;;;;1.95;75.24;100570.87;104489;1104;84689;-62
2021/04/02 03:57:40;;;;;;;5.43;3.63;;;;;;;2.01;75.67;100570.31;104481;1104;78013;-64
2021/04/02 03:59:48;;;;;;;5.85;4.20;;;;;;;2.03;75.73;100568.39;104555;1104;64202;-63
2021/04/02 04:01:55;;;;;;;5.72;3.80;;;;;;;2.09;75.27;100558.03;104520;1104;81193;-64
2021/04/02 04:04:02;;;;;;;4.80;3.80;;;;;;;2.13;75.44;100555.96;104498;1104;71894;-64
2021/04/02 04:06:13;;;;;;;4.93;3.67;;;;;;;2.16;75.93;100559.22;104513;1104;84844;-63
2021/04/02 04:08:20;;;;;;;5.80;4.00;;;;;;;2.16;75.76;100564.55;104475;1104;78360;-64
2021/04/02 04:10:27;;;;;;;4.20;3.42;;;;;;;2.23;75.77;100562.17;104470;1103;64121;-63
2021/04/02 04:12:34;;;;;;;6.25;4.47;;;;;;;2.24;75.77;100562.06;104500;1104;80654;-63
2021/04/02 04:14:44;;;;;;;4.75;3.63;;;;;;;2.27;76.10;100569.80;104490;1104;71611;-64
2021/04/02 04:16:54;;;;;;;6.87;3.57;;;;;;;2.33;75.83;100568.42;104485;1104;84923;-61
2021/04/02 04:19:02;;;;;;;4.28;3.80;;;;;;;2.34;75.85;100568.27;104471;1104;77551;-61
2021/04/02 04:21:13;;;;;;;7.32;3.80;;;;;;;2.34;76.15;100568.27;104521;1104;64406;-64
2021/04/02 04:23:21;;;;;;;4.43;3.45;;;;;;;2.34;75.80;100562.09;104489;1104;81449;-63
2021/04/02 04:25:28;;;;;;;5.80;4.10;;;;;;;2.35;75.96;100563.80;104500;1104;72081;-64
2021/04/02 04:27:41;;;;;;;5.57;3.72;;;;;;;2.32;75.95;100564.91;104524;1104;84205;-65
2021/04/02 04:29:51;;;;;;;5.32;3.45;;;;;;;2.36;76.26;100560.98;104504;1104;78244;-65
2021/04/02 04:32:02;;;;;;;4.37;3.43;;;;;;;2.42;76.25;100559.61;104496;1104;64172;-61
2021/04/02 04:34:09;;;;;;;5.40;3.63;;;;;;;2.44;76.24;100557.67;104507;1103;81619;-62
2021/04/02 04:36:15;;;;;;;5.03;3.80;;;;;;;2.45;76.36;100566.48;104483;1104;71572;-63
2021/04/02 04:38:25;;;;;;;6.80;4.13;;;;;;;2.50;76.09;100557.11;104517;1104;84277;-63
2021/04/02 04:40:32;;;;;;;6.13;4.45;;;;;;;2.53;76.36;100553.36;104473;1105;78650;-64
2021/04/02 04:42:39;;;;;;;6.13;4.20;;;;;;;2.59;75.93;100555.47;104463;1104;64108;-64
2021/04/02 04:44:50;;;;;;;6.95;4.10;;;;;;;2.63;76.29;100547.08;104496;1104;80796;-64
2021/04/02 04:46:56;;;;;;;7.10;5.18;;;;;;;2.69;76.24;100551.85;104550;1104;71802;-63
2021/04/02 04:49:06;;;;;;;6.65;4.15;;;;;;;2.71;76.40;100549.06;104497;1104;84310;-64
2021/04/02 04:51:17;;;;;;;7.63;4.20;;;;;;;2.74;76.16;100549.65;104469;1104;77982;-64
2021/04/02 04:53:29;;;;;;;7.57;4.38;;;;;;;2.80;75.97;100543.74;104541;1104;64256;-63
2021/04/02 04:55:39;;;;;;;4.30;3.50;;;;;;;2.93;76.23;100551.52;104496;1104;81398;-65
2021/04/02 04:57:46;;;;;;;4.72;3.80;;;;;;;2.98;75.84;100547.45;104499;1104;71756;-59
2021/04/02 04:59:53;;;;;;;6.05;4.00;;;;;;;3.01;75.89;100541.00;104493;1104;84071;-61
2021/04/02 05:02:04;;;;;;;6.33;4.00;;;;;;;3.02;75.97;100549.86;104455;1104;77596;-64
2021/04/02 05:04:11;;;;;;;6.30;4.20;;;;;;;3.03;75.96;100555.05;104494;1104;64252;-63
2021/04/02 05:06:18;;;;;;;4.90;4.03;;;;;;;3.02;76.03;100563.20;104510;1104;79848;-65
2021/04/02 05:08:29;;;;;;;5.45;4.00;;;;;;;3.06;75.99;100565.44;104511;1104;71803;-64
2021/04/02 05:10:38;;;;;;;6.00;3.47;;;;;;;3.15;76.14;100574.45;104492;1104;83842;-64
2021/04/02 05:12:45;;;;;;;6.57;4.13;;;;;;;3.23;76.26;100575.45;104451;1104;78570;-65
2021/04/02 05:14:52;;;;;;;6.68;4.68;;;;;;;3.32;76.05;100579.13;104501;1104;64444;-65
2021/04/02 05:16:58;;;;;;;6.38;4.53;;;;;;;3.35;76.10;100586.86;104505;1104;80861;-64
2021/04/02 05:19:05;;;;;;;6.10;4.25;;;;;;;3.43;75.89;100585.16;104486;1104;72306;-63
2021/04/02 05:21:14;;;;;;;7.15;4.13;;;;;;;3.51;75.76;100582.66;104525;1104;84394;-62
2021/04/02 05:23:20;;;;;;;6.07;3.97;;;;;;;3.59;75.88;100584.63;104499;1103;78317;-64
2021/04/02 05:25:25;;;;;;;4.93;3.50;;;;;;;3.63;75.77;100587.84;104514;1104;64108;-63
2021/04/02 05:27:30;;;;;;;7.05;5.35;;;;;;;3.61;75.62;100592.48;104548;1104;80024;-61
2021/04/02 05:29:36;;;;;;;5.90;3.88;;;;;;;3.62;75.43;100589.69;104514;1104;72423;-62
2021/04/02 05:31:41;;;;;;;6.78;4.15;;;;;;;3.60;75.17;100596.98;104552;1104;84172;-63
2021/04/02 05:33:47;;;;;;;7.78;4.45;;;;;;;3.71;75.14;100594.17;104503;1104;78745;-65
2021/04/02 05:35:53;;;;;;;8.52;4.78;;;;;;;3.95;75.02;100596.42;104514;1104;64109;-65
2021/04/02 05:37:59;;;;;;;7.05;4.63;;;;;;;4.48;75.07;100594.89;104530;1104;80886;-62
2021/04/02 05:40:07;;;;;;;11.55;6.28;;;;;;;4.64;74.25;100596.97;104499;1104;71158;-61
2021/04/02 05:42:22;;;;;;;9.18;5.32;;;;;;;4.50;73.86;100598.29;104534;1104;84128;-61
2021/04/02 05:44:32;;;;;;;19.77;8.37;;;;;;;4.73;73.75;100596.07;104479;1104;77557;-61
2021/04/02 05:46:41;;;;;;;14.95;7.25;;;;;;;4.94;73.41;100591.35;104523;1104;64358;-61
2021/04/02 05:48:46;;;;;;;14.43;7.22;;;;;;;5.02;73.30;100590.59;104555;1104;80849;-62
2021/04/02 05:50:57;;;;;;;11.38;6.00;;;;;;;4.93;73.26;100605.71;104482;1103;72424;-61
2021/04/02 05:53:06;;;;;;;8.40;5.70;;;;;;;4.88;73.37;100596.44;104540;1104;84780;-63
2021/04/02 05:55:15;;;;;;;14.25;7.88;;;;;;;4.93;73.13;100597.68;104470;1104;77693;-65
2021/04/02 05:57:23;;;;;;;19.63;8.52;;;;;;;4.99;73.08;100591.74;104531;1104;64111;-64
2021/04/02 05:59:29;;;;;;;6.65;5.03;;;;;;;4.90;73.07;100595.30;104507;1104;81067;-65
2021/04/02 06:01:36;;;;;;;11.48;6.75;;;;;;;4.81;73.18;100584.66;104551;1104;71667;-61
2021/04/02 06:03:42;;;;;;;10.70;6.20;;;;;;;4.81;73.05;100596.17;104554;1104;83729;-61
2021/04/02 06:05:48;;;;;;;11.55;6.10;;;;;;;4.92;73.10;100601.34;104450;1104;78066;-61
2021/04/02 06:07:59;;;;;;;11.93;6.88;;;;;;;4.71;72.93;100593.55;104500;1103;64499;-62
2021/04/02 06:10:06;;;;;;;9.77;6.13;;;;;;;4.61;72.56;100597.27;104494;1103;80760;-62
2021/04/02 06:12:14;;;;;;;9.82;6.93;;;;;;;4.67;72.88;100588.63;104513;1104;72153;-65
2021/04/02 06:14:20;;;;;;;11.40;7.00;;;;;;;4.76;72.61;100593.11;104489;1104;84557;-65
2021/04/02 06:16:25;;;;;;;8.53;7.00;;;;;;;4.80;72.92;100588.31;104468;1104;77951;-61
2021/04/02 06:18:39;;;;;;;6.72;5.95;;;;;;;4.97;72.53;100582.17;104532;1104;64127;-61
2021/04/02 06:20:47;;;;;;;8.63;6.97;;;;;;;5.01;72.13;100587.07;104536;1104;81221;-61
2021/04/02 06:23:15;;;;;;;8.60;6.57;;;;;;;5.04;71.88;100586.77;104481;1104;71678;-61
2021/04/02 06:25:24;;;;;;;9.35;7.28;;;;;;;5.16;72.03;100580.23;104517;1104;84340;-62
2021/04/02 06:27:31;;;;;;;9.93;6.45;;;;;;;5.22;72.00;100579.61;104502;1104;78591;-64
2021/04/02 06:29:42;;;;;;;7.70;6.80;;;;;;;6.35;72.61;100580.64;104494;1104;64070;-65
2021/04/02 06:31:50;;;;;;;6.88;5.82;;;;;;;7.59;71.80;100579.97;104484;1104;81518;-61
2021/04/02 06:33:56;;;;;;;6.97;6.28;;;;;;;8.26;70.01;100585.05;104490;1104;70875;-62
2021/04/02 06:36:13;;;;;;;7.60;5.90;;;;;;;9.09;67.97;100582.80;104485;1104;84195;-66
2021/04/02 06:38:22;;;;;;;9.98;6.88;;;;;;;9.11;67.09;100588.88;104517;1104;78057;-66
2021/04/02 06:40:27;;;;;;;11.27;6.97;;;;;;;9.17;66.54;100588.19;104481;1104;64069;-64
2021/04/02 06:42:34;;;;;;;9.98;7.28;;;;;;;8.88;66.17;100594.19;104510;1104;82519;-64
2021/04/02 06:44:43;;;;;;;11.68;8.90;;;;;;;8.66;65.54;100594.92;104520;1104;71584;-65
2021/04/02 06:46:51;;;;;;;12.45;7.97;;;;;;;8.63;65.29;100600.65;104509;1104;84984;-61
2021/04/02 06:49:09;;;;;;;10.68;7.80;;;;;;;8.67;65.25;100599.31;104495;1104;77696;-61
2021/04/02 06:51:17;;;;;;;12.30;8.20;;;;;;;8.57;64.89;100604.02;104484;1104;64105;-64
2021/04/02 06:53:25;;;;;;;16.08;8.57;;;;;;;8.86;64.48;100598.07;104523;1103;80918;-65
2021/04/02 06:55:32;;;;;;;12.98;8.38;;;;;;;9.17;64.85;100590.88;104502;1103;72327;-65
2021/04/02 06:57:39;;;;;;;15.32;8.82;;;;;;;9.48;63.88;100598.95;104507;1104;84742;-61
2021/04/02 06:59:46;;;;;;;11.23;8.40;;;;;;;10.00;62.74;100596.41;104461;1103;78473;-61
2021/04/02 07:01:56;;;;;;;10.07;6.70;;;;;;;10.70;62.07;100593.43;104528;1104;64217;-62
2021/04/02 07:04:02;;;;;;;5.80;4.72;;;;;;;11.02;60.21;100584.94;104495;1104;80519;-61
2021/04/02 07:06:07;;;;;;;6.60;4.68;;;;;;;11.94;60.48;100586.90;104505;1104;71054;-65
2021/04/02 07:08:20;;;;;;;6.22;4.78;;;;;;;12.95;58.03;100579.13;104513;1104;85754;-65
2021/04/02 07:10:27;;;;;;;7.00;4.93;;;;;;;13.32;56.57;100577.05;104502;1104;77111;-65
2021/04/02 07:12:44;;;;;;;7.25;4.72;;;;;;;13.73;56.19;100576.97;104476;1104;64083;-66
2021/04/02 07:14:50;;;;;;;6.25;4.07;;;;;;;14.98;55.53;100561.47;104537;1104;81052;-65
2021/04/02 07:16:57;;;;;;;4.55;3.35;;;;;;;15.60;52.21;100561.64;104509;1104;72146;-61
2021/04/02 07:19:05;;;;;;;4.05;3.65;;;;;;;15.64;49.19;100568.34;104507;1104;84799;-61
2021/04/02 07:21:11;;;;;;;4.22;3.67;;;;;;;16.20;50.46;100573.01;104524;1104;79481;-66
2021/04/02 07:23:17;;;;;;;5.38;3.85;;;;;;;15.66;48.26;100579.84;104509;1104;64083;-64
2021/04/02 07:25:23;;;;;;;6.03;3.63;;;;;;;15.23;48.69;100581.48;104525;1104;80759;-65
2021/04/02 07:27:32;;;;;;;6.35;4.32;;;;;;;14.89;48.10;100573.66;104476;1104;72950;-61
2021/04/02 07:29:38;;;;;;;3.83;2.80;;;;;;;15.24;47.41;100577.72;104509;1104;85039;-60
2021/04/02 07:31:45;;;;;;;3.42;2.70;;;;;;;15.29;46.68;100580.63;104504;1104;78139;-65
2021/04/02 07:33:51;;;;;;;2.97;2.50;;;;;;;16.57;47.05;100580.26;104502;1104;64555;-66
2021/04/02 07:36:04;;;;;;;4.55;2.92;;;;;;;17.46;45.71;100574.23;104499;1104;82423;-65
2021/04/02 07:38:15;;;;;;;4.32;3.13;;;;;;;16.92;43.89;100575.10;104538;1104;70953;-65
2021/04/02 07:40:27;;;;;;;3.95;3.28;;;;;;;16.38;44.69;100575.78;104489;1104;84565;-66
2021/04/02 07:42:33;;;;;;;3.27;2.80;;;;;;;16.60;43.64;100582.55;104482;1104;77324;-66
2021/04/02 07:44:49;;;;;;;4.07;3.08;;;;;;;16.79;43.99;100584.24;104513;1104;64112;-66
2021/04/02 07:47:09;;;;;;;3.45;3.00;;;;;;;16.72;42.77;100577.19;104491;1103;81772;-60
2021/04/02 07:49:18;;;;;;;4.53;2.75;;;;;;;16.04;42.87;100581.73;104520;1104;71049;-61
2021/04/02 07:51:23;;;;;;;4.07;3.00;;;;;;;16.07;42.24;100578.56;104517;1104;84595;-61
2021/04/02 07:53:46;;;;;;;3.00;2.60;;;;;;;16.36;43.34;100577.91;104513;1104;79159;-61
2021/04/02 07:56:01;;;;;;;3.10;2.50;;;;;;;16.83;42.30;100579.18;104524;1104;64111;-60
2021/04/02 07:58:07;;;;;;;3.50;2.50;;;;;;;17.36;41.60;100568.50;104513;1104;80990;-60
2021/04/02 08:00:15;;;;;;;6.03;3.05;;;;;;;18.00;41.31;100568.66;104495;1104;72192;-60
2021/04/02 08:02:31;;;;;;;3.33;2.53;;;;;;;19.07;39.09;100572.92;104561;1104;83701;-61
2021/04/02 08:04:40;;;;;;;2.85;2.00;;;;;;;19.74;36.86;100573.25;104458;1103;77110;-61
2021/04/02 08:06:49;;;;;;;3.28;2.45;;;;;;;20.25;36.98;100572.27;104493;1104;64115;-65
2021/04/02 08:08:59;;;;;;;3.25;2.03;;;;;;;20.33;34.72;100567.21;104505;1104;80686;-64
2021/04/02 08:11:09;;;;;;;2.95;1.88;;;;;;;20.45;32.97;100561.64;104526;1104;71430;-63
2021/04/02 08:13:19;;;;;;;2.75;1.90;;;;;;;21.30;35.81;100566.75;104489;1104;84124;-65
2021/04/02 08:15:24;;;;;;;2.63;1.60;;;;;;;22.09;33.99;100555.02;104510;1104;78187;-65
2021/04/02 08:17:31;;;;;;;2.00;1.60;;;;;;;22.01;31.68;100549.99;104513;1104;64096;-65
2021/04/02 08:19:41;;;;;;;3.08;1.73;;;;;;;22.18;31.95;100553.46;104525;1104;81467;-65
2021/04/02 08:21:50;;;;;;;2.74;1.82;;;;;;;22.54;31.73;100549.08;104522;1104;71631;-65
2021/04/02 08:23:57;;;;;;;2.10;1.60;;;;;;;22.21;31.47;100543.85;104538;1104;84861;-64
2021/04/02 08:26:02;;;;;;;2.35;1.63;;;;;;;22.19;30.07;100541.38;104487;1104;79394;-65
2021/04/02 08:28:11;;;;;;;2.30;1.58;;;;;;;22.52;29.88;100548.52;104505;1104;63984;-66
2021/04/02 08:30:22;;;;;;;2.53;1.50;;;;;;;22.44;29.14;100546.26;104501;1104;80823;-66
2021/04/02 08:32:36;;;;;;;2.08;1.45;;;;;;;22.44;28.52;100546.26;104504;1104;70657;-65
2021/04/02 08:34:47;;;;;;;2.60;1.60;;;;;;;22.22;27.14;100534.52;104524;1104;83881;-65
2021/04/02 08:36:55;;;;;;;2.50;1.30;;;;;;;22.17;28.33;100535.28;104485;1104;76723;-61
2021/04/02 08:39:00;;;;;;;2.03;1.42;;;;;;;22.08;27.88;100538.78;104512;1104;64240;-61
2021/04/02 08:41:21;;;;;;;2.66;1.42;;;;;;;21.63;27.99;100528.12;104517;1104;81600;-65
2021/04/02 08:43:27;;;;;;;4.00;1.80;;;;;;;22.25;30.03;100531.20;104551;1104;72358;-65
2021/04/02 08:45:37;;;;;;;1.70;1.38;;;;;;;23.47;30.14;100523.45;104506;1104;85169;-66
2021/04/02 08:47:48;;;;;;;2.10;1.52;;;;;;;23.44;27.71;100524.00;104468;1104;77815;-61
2021/04/02 08:49:55;;;;;;;3.00;1.40;;;;;;;23.29;27.37;100528.60;104544;1104;64095;-58
2021/04/02 08:52:00;;;;;;;2.25;1.38;;;;;;;22.93;27.48;100526.77;104509;1104;80815;-60
2021/04/02 08:54:16;;;;;;;2.30;1.60;;;;;;;22.87;28.15;100526.75;104505;1104;72130;-61
2021/04/02 08:56:23;;;;;;;2.00;1.15;;;;;;;23.59;27.18;100517.70;104531;1104;84489;-65
2021/04/02 08:58:29;;;;;;;1.98;1.30;;;;;;;23.71;27.77;100511.91;104489;1104;77382;-66
2021/04/02 09:00:34;;;;;;;1.95;1.20;;;;;;;23.70;26.36;100515.80;104520;1104;64105;-65
2021/04/02 09:02:41;;;;;;;1.80;1.05;;;;;;;23.96;26.17;100509.20;104492;1104;80438;-66
2021/04/02 09:04:49;;;;;;;2.42;1.33;;;;;;;23.57;26.06;100514.37;104507;1104;70772;-65
2021/04/02 09:06:55;;;;;;;1.90;1.20;;;;;;;23.62;26.05;100511.65;104474;1104;83960;-60
2021/04/02 09:09:01;;;;;;;1.83;1.38;;;;;;;23.43;25.67;100510.49;104467;1104;79493;-61
2021/04/02 09:11:11;;;;;;;1.65;1.00;;;;;;;23.28;25.66;100515.91;104518;1104;64078;-65
2021/04/02 09:13:27;;;;;;;2.10;1.20;;;;;;;22.69;24.86;100518.91;104540;1104;81241;-66
2021/04/02 09:15:34;;;;;;;1.80;1.50;;;;;;;22.08;25.06;100522.28;104489;1104;71906;-64
2021/04/02 09:17:40;;;;;;;1.55;1.40;;;;;;;22.11;25.97;100519.00;104485;1103;84382;-61
2021/04/02 09:19:45;;;;;;;2.28;1.30;;;;;;;22.21;25.95;100519.08;104477;1104;78807;-61
2021/04/02 09:21:53;;;;;;;2.58;1.83;;;;;;;22.57;26.20;100518.27;104473;1104;64240;-61
2021/04/02 09:23:59;;;;;;;2.35;1.60;;;;;;;23.14;26.29;100515.58;104504;1104;82265;-61
2021/04/02 09:26:12;;;;;;;1.73;1.40;;;;;;;22.84;26.18;100518.17;104523;1104;70342;-65
2021/04/02 09:28:24;;;;;;;1.75;1.23;;;;;;;22.66;25.86;100518.63;104497;1104;85177;-66
2021/04/02 09:30:37;;;;;;;2.33;1.20;;;;;;;22.31;26.13;100510.89;104487;1104;78696;-66
2021/04/02 09:32:43;;;;;;;3.28;1.50;;;;;;;22.56;26.18;100507.49;104503;1104;64265;-65
2021/04/02 09:34:51;;;;;;;2.42;1.40;;;;;;;22.79;25.29;100516.23;104475;1104;81270;-65
2021/04/02 09:36:58;;;;;;;1.80;1.25;;;;;;;22.01;25.84;100505.97;104539;1104;71078;-61
2021/04/02 09:39:12;;;;;;;2.10;1.60;;;;;;;21.42;25.71;100507.00;104494;1103;85324;-61
2021/04/02 09:41:25;;;;;;;2.08;1.33;;;;;;;20.88;26.42;100509.58;104481;1104;78704;-66
2021/04/02 09:43:45;;;;;;;1.42;1.10;;;;;;;20.80;25.73;100500.94;104532;1104;64131;-65
2021/04/02 09:45:52;;;;;;;2.33;1.10;;;;;;;20.42;25.64;100505.34;104548;1104;80411;-65
2021/04/02 09:47:59;;;;;;;1.67;1.23;;;;;;;19.69;26.25;100501.88;104539;1104;71162;-61
2021/04/02 09:50:11;;;;;;;2.90;1.30;;;;;;;18.93;26.47;100505.80;104515;1104;84089;-64
2021/04/02 09:52:18;;;;;;;2.35;1.10;;;;;;;18.13;26.82;100502.83;104487;1104;77564;-61
2021/04/02 09:54:26;;;;;;;1.80;1.20;;;;;;;17.60;27.71;100502.84;104422;1104;89183;-59
2021/04/02 09:56:33;;;;;;;2.50;1.45;;;;;;;16.89;28.67;100496.41;104535;1104;81798;-61